createdAt,value
2023-01-12T00:02:19.058Z,32.80
2023-01-12T00:04:47.687Z,30.35
2023-01-12T00:07:18.007Z,30.98
2023-01-12T00:09:46.587Z,26.33
2023-01-12T00:12:15.109Z,28.38
2023-01-12T00:14:43.448Z,27.38
2023-01-12T00:17:16.838Z,22.88
2023-01-12T00:19:45.185Z,26.30
2023-01-12T00:22:17.712Z,29.40
2023-01-12T00:24:49.716Z,28.17
2023-01-12T00:27:20.432Z,27.25
2023-01-12T00:29:49.211Z,24.13
2023-01-12T00:32:20.538Z,20.15
2023-01-12T00:34:50.278Z,23.50
2023-01-12T00:37:20.626Z,25.25
2023-01-12T00:40:00.890Z,19.17
2023-01-12T00:42:48.002Z,19.77
2023-01-12T00:45:22.970Z,20.77
2023-01-12T00:47:53.406Z,21.50
2023-01-12T00:50:21.918Z,18.88
2023-01-12T00:52:50.317Z,20.10
2023-01-12T00:55:18.700Z,22.23
2023-01-12T00:57:47.266Z,18.27
2023-01-12T01:00:16.644Z,24.48
2023-01-12T01:02:45.106Z,25.55
2023-01-12T01:05:15.104Z,12.50
2023-01-12T01:07:43.523Z,26.58
2023-01-12T01:10:12.902Z,22.73
2023-01-12T01:12:41.734Z,32.38
2023-01-12T01:15:10.805Z,31.70
2023-01-12T01:17:39.287Z,32.58
2023-01-12T01:20:08.023Z,33.53
2023-01-12T01:22:37.776Z,21.33
2023-01-12T01:25:06.691Z,30.25
2023-01-12T01:27:35.098Z,31.30
2023-01-12T01:30:03.491Z,16.63
2023-01-12T01:32:31.924Z,16.13
2023-01-12T01:35:00.339Z,16.75
2023-01-12T01:37:29.849Z,18.85
2023-01-12T01:39:59.285Z,27.30
2023-01-12T01:42:30.433Z,14.50
2023-01-12T01:45:00.698Z,12.43
2023-01-12T01:47:36.726Z,21.27
2023-01-12T01:50:11.796Z,20.67
2023-01-12T01:52:42.873Z,17.08
2023-01-12T01:55:17.575Z,8.82
2023-01-12T01:57:49.559Z,23.48
2023-01-12T02:00:18.625Z,20.83
2023-01-12T02:02:49.025Z,26.25
2023-01-12T02:05:21.203Z,21.67
2023-01-12T02:07:50.836Z,25.23
2023-01-12T02:10:21.882Z,23.20
2023-01-12T02:13:09.104Z,17.50
2023-01-12T02:16:04.516Z,20.77
2023-01-12T02:18:37.920Z,16.30
2023-01-12T02:21:29.368Z,14.45
2023-01-12T02:24:28.923Z,19.35
2023-01-12T02:27:29.909Z,32.92
2023-01-12T02:30:40.317Z,13.35
2023-01-12T02:33:22.413Z,11.57
2023-01-12T02:35:59.167Z,11.73
2023-01-12T02:38:36.625Z,17.52
2023-01-12T02:41:14.109Z,19.40
2023-01-12T02:43:43.537Z,17.85
2023-01-12T02:46:15.925Z,17.50
2023-01-12T02:48:52.603Z,17.13
2023-01-12T02:51:28.394Z,13.27
2023-01-12T02:54:02.394Z,6.88
2023-01-12T02:56:34.388Z,12.63
2023-01-12T02:59:06.872Z,10.43
2023-01-12T03:01:35.610Z,16.83
2023-01-12T03:04:09.035Z,14.32
2023-01-12T03:06:42.661Z,13.93
2023-01-12T03:09:12.209Z,10.13
2023-01-12T03:11:44.530Z,10.45
2023-01-12T03:14:16.568Z,12.20
2023-01-12T03:16:44.998Z,10.73
2023-01-12T03:19:19.342Z,16.30
2023-01-12T03:21:54.604Z,11.23
2023-01-12T03:24:27.493Z,17.50
2023-01-12T03:27:01.566Z,8.07
2023-01-12T03:29:34.843Z,5.57
2023-01-12T03:32:03.627Z,12.23
2023-01-12T03:34:34.416Z,10.57
2023-01-12T03:37:09.166Z,6.75
2023-01-12T03:39:43.404Z,9.98
2023-01-12T03:42:18.297Z,11.48
2023-01-12T03:44:53.245Z,10.35
2023-01-12T03:47:25.711Z,8.48
2023-01-12T03:49:59.824Z,7.82
2023-01-12T03:52:30.469Z,7.55
2023-01-12T03:55:01.195Z,6.35
2023-01-12T03:57:30.536Z,8.70
2023-01-12T04:00:00.742Z,12.00
2023-01-12T04:02:29.443Z,9.65
2023-01-12T04:04:58.957Z,8.65
2023-01-12T04:07:27.471Z,5.88
2023-01-12T04:09:57.149Z,5.30
2023-01-12T04:12:25.571Z,6.38
2023-01-12T04:14:53.931Z,7.68
2023-01-12T04:17:25.187Z,3.72
2023-01-12T04:19:53.534Z,7.22
2023-01-12T04:22:46.241Z,5.53
2023-01-12T04:25:15.690Z,7.35
2023-01-12T04:27:47.231Z,6.55
2023-01-12T04:30:16.985Z,6.80
2023-01-12T04:32:45.718Z,5.68
2023-01-12T04:35:14.258Z,8.32
2023-01-12T04:37:44.461Z,7.60
2023-01-12T04:40:15.346Z,5.60
2023-01-12T04:43:09.897Z,6.57
2023-01-12T04:45:40.203Z,7.43
2023-01-12T04:48:10.841Z,9.60
2023-01-12T04:50:40.248Z,9.50
2023-01-12T04:53:12.672Z,13.20
2023-01-12T04:55:42.909Z,10.13
2023-01-12T04:58:11.595Z,12.55
2023-01-12T05:00:40.045Z,7.82
2023-01-12T05:03:08.423Z,8.15
2023-01-12T05:05:37.822Z,6.78
2023-01-12T05:08:24.513Z,9.65
2023-01-12T05:10:55.927Z,7.03
2023-01-12T05:13:25.948Z,5.68
2023-01-12T05:15:54.316Z,7.65
2023-01-12T05:18:22.943Z,5.25
2023-01-12T05:20:51.612Z,5.78
2023-01-12T05:23:20.075Z,6.53
2023-01-12T05:25:48.725Z,9.98
2023-01-12T05:28:18.263Z,7.05
2023-01-12T05:30:46.705Z,3.55
2023-01-12T05:33:16.543Z,5.38
2023-01-12T05:35:44.942Z,3.25
2023-01-12T05:38:13.640Z,7.15
2023-01-12T05:40:42.085Z,8.27
2023-01-12T05:43:31.094Z,5.93
2023-01-12T05:46:04.286Z,6.43
2023-01-12T05:48:32.938Z,5.30
2023-01-12T05:51:02.653Z,6.55
2023-01-12T05:53:31.298Z,8.07
2023-01-12T05:55:59.985Z,6.55
2023-01-12T05:58:28.440Z,5.80
2023-01-12T06:00:57.170Z,8.02
2023-01-12T06:03:28.009Z,7.05
2023-01-12T06:05:58.449Z,3.60
2023-01-12T06:08:27.031Z,4.40
2023-01-12T06:10:55.485Z,3.88
2023-01-12T06:13:41.377Z,11.32
2023-01-12T06:16:09.810Z,5.18
2023-01-12T06:18:40.883Z,4.68
2023-01-12T06:21:10.556Z,7.13
2023-01-12T06:23:38.975Z,4.63
2023-01-12T06:26:10.538Z,7.10
2023-01-12T06:28:39.895Z,3.75
2023-01-12T06:31:10.548Z,4.32
2023-01-12T06:33:40.208Z,3.25
2023-01-12T06:36:09.478Z,6.38
2023-01-12T06:38:38.431Z,4.47
2023-01-12T06:41:08.085Z,5.25
2023-01-12T06:43:36.520Z,5.65
2023-01-12T06:46:05.369Z,4.28
2023-01-12T06:48:39.001Z,5.55
2023-01-12T06:51:09.156Z,3.30
2023-01-12T06:53:37.564Z,4.68
2023-01-12T06:56:06.478Z,4.68
2023-01-12T06:58:34.966Z,3.10
2023-01-12T07:01:03.455Z,7.20
2023-01-12T07:03:32.217Z,5.60
2023-01-12T07:06:00.614Z,5.07
2023-01-12T07:08:30.391Z,7.78
2023-01-12T07:11:02.107Z,7.97
2023-01-12T07:13:30.511Z,6.57
2023-01-12T07:16:00.236Z,5.07
2023-01-12T07:18:29.662Z,7.10
2023-01-12T07:20:58.666Z,5.70
2023-01-12T07:23:27.039Z,7.60
2023-01-12T07:25:58.301Z,4.88
2023-01-12T07:28:26.702Z,8.80
2023-01-12T07:31:00.566Z,8.45
2023-01-12T07:33:29.171Z,8.90
2023-01-12T07:36:00.150Z,9.63
2023-01-12T07:38:29.061Z,16.40
2023-01-12T07:41:01.790Z,7.75
2023-01-12T07:43:30.550Z,13.02
2023-01-12T07:45:59.174Z,11.38
2023-01-12T07:48:27.774Z,12.43
2023-01-12T07:50:56.640Z,16.45
2023-01-12T07:53:25.099Z,13.25
2023-01-12T07:55:53.531Z,14.85
2023-01-12T07:58:23.134Z,8.63
2023-01-12T08:00:51.768Z,11.00
2023-01-12T08:03:20.226Z,10.10
2023-01-12T08:05:48.699Z,8.25
2023-01-12T08:08:17.234Z,10.02
2023-01-12T08:10:47.443Z,6.65
2023-01-12T08:13:15.882Z,6.43
2023-01-12T08:15:49.425Z,6.93
2023-01-12T08:18:20.542Z,8.27
2023-01-12T08:20:48.939Z,5.60
2023-01-12T08:23:22.452Z,7.80
2023-01-12T08:25:56.410Z,9.05
2023-01-12T08:28:28.968Z,6.03
2023-01-12T08:30:58.752Z,10.32
2023-01-12T08:33:27.835Z,5.82
2023-01-12T08:35:56.493Z,7.00
2023-01-12T08:38:24.975Z,6.47
2023-01-12T08:41:11.004Z,3.92
2023-01-12T08:43:56.940Z,8.32
2023-01-12T08:46:26.829Z,6.13
2023-01-12T08:48:55.289Z,3.67
2023-01-12T08:51:23.627Z,5.22
2023-01-12T08:53:52.055Z,3.55
2023-01-12T08:56:20.588Z,5.88
2023-01-12T08:58:49.018Z,3.35
2023-01-12T09:01:19.854Z,3.15
2023-01-12T09:03:49.806Z,2.05
2023-01-12T09:06:20.589Z,3.45
2023-01-12T09:08:49.344Z,4.15
2023-01-12T09:11:17.889Z,2.92
2023-01-12T09:13:46.487Z,4.28
2023-01-12T09:16:17.535Z,4.40
2023-01-12T09:18:46.294Z,7.05
2023-01-12T09:21:18.108Z,4.85
2023-01-12T09:23:46.615Z,4.55
2023-01-12T09:26:17.294Z,7.80
2023-01-12T09:28:46.243Z,10.10
2023-01-12T09:31:18.663Z,5.95
2023-01-12T09:33:48.178Z,5.70
2023-01-12T09:36:20.654Z,8.27
2023-01-12T09:38:49.866Z,8.38
2023-01-12T09:41:40.698Z,7.90
2023-01-12T09:44:36.292Z,5.97
2023-01-12T09:47:08.238Z,7.40
2023-01-12T09:49:40.486Z,6.07
2023-01-12T09:52:16.643Z,7.40
2023-01-12T09:54:46.341Z,10.07
2023-01-12T09:57:44.647Z,5.97
2023-01-12T10:00:15.093Z,4.80
2023-01-12T10:02:46.396Z,7.55
2023-01-12T10:05:26.024Z,6.35
2023-01-12T10:08:01.000Z,8.13
2023-01-12T10:10:29.564Z,9.20
2023-01-12T10:13:02.035Z,6.63
2023-01-12T10:15:43.860Z,9.10
2023-01-12T10:18:17.999Z,7.20
2023-01-12T10:20:47.096Z,8.00
2023-01-12T10:23:24.532Z,10.60
2023-01-12T10:25:57.232Z,8.32
2023-01-12T10:28:29.715Z,7.03
2023-01-12T10:30:59.180Z,6.63
2023-01-12T10:33:29.289Z,4.50
2023-01-12T10:36:00.345Z,10.45
2023-01-12T10:38:33.881Z,4.55
2023-01-12T10:41:17.190Z,6.85
2023-01-12T10:43:47.513Z,4.53
2023-01-12T10:46:17.325Z,7.68
2023-01-12T10:48:47.124Z,2.72
2023-01-12T10:51:24.682Z,4.93
2023-01-12T10:53:58.074Z,7.03
2023-01-12T10:56:36.592Z,6.93
2023-01-12T10:59:17.073Z,4.57
2023-01-12T11:01:47.964Z,2.50
2023-01-12T11:04:20.364Z,2.97
2023-01-12T11:06:58.650Z,5.65
2023-01-12T11:09:30.281Z,4.57
2023-01-12T11:11:59.993Z,3.33
2023-01-12T11:14:30.790Z,5.15
2023-01-12T11:17:16.059Z,4.85
2023-01-12T11:19:45.516Z,4.55
2023-01-12T11:22:18.646Z,3.30
2023-01-12T11:24:55.419Z,5.22
2023-01-12T11:27:30.368Z,5.03
2023-01-12T11:30:01.522Z,3.40
2023-01-12T11:32:37.819Z,5.53
2023-01-12T11:35:15.683Z,4.68
2023-01-12T11:37:45.053Z,3.28
2023-01-12T11:40:30.927Z,6.63
2023-01-12T11:43:24.883Z,4.13
2023-01-12T11:45:59.285Z,3.40
2023-01-12T11:48:33.862Z,5.55
2023-01-12T11:51:02.838Z,2.17
2023-01-12T11:53:31.250Z,7.88
2023-01-12T11:56:12.548Z,5.10
2023-01-12T11:58:51.847Z,3.72
2023-01-12T12:01:28.365Z,5.05
2023-01-12T12:04:18.869Z,3.03
2023-01-12T12:07:03.368Z,3.35
2023-01-12T12:09:53.463Z,4.97
2023-01-12T12:12:33.888Z,2.58
2023-01-12T12:15:17.721Z,4.47
2023-01-12T12:17:56.489Z,5.25
2023-01-12T12:20:33.159Z,2.78
2023-01-12T12:23:13.602Z,4.05
2023-01-12T12:25:51.248Z,3.75
2023-01-12T12:28:43.918Z,1.75
2023-01-12T12:31:24.860Z,2.70
2023-01-12T12:34:05.961Z,3.35
2023-01-12T12:36:40.664Z,3.25
2023-01-12T12:39:25.761Z,2.13
2023-01-12T12:42:17.464Z,2.75
2023-01-12T12:45:15.671Z,2.30
2023-01-12T12:47:58.859Z,3.30
2023-01-12T12:50:34.084Z,1.33
2023-01-12T12:53:23.287Z,3.65
2023-01-12T12:55:53.177Z,2.47
2023-01-12T12:58:43.146Z,0.80
2023-01-12T13:02:05.673Z,2.67
2023-01-12T13:05:05.052Z,2.80
2023-01-12T13:07:37.043Z,4.63
2023-01-12T13:10:20.057Z,1.98
2023-01-12T13:12:58.596Z,1.70
2023-01-12T13:15:37.366Z,1.73
2023-01-12T13:18:07.298Z,2.88
2023-01-12T13:20:53.518Z,4.45
2023-01-12T13:23:44.136Z,6.35
2023-01-12T13:26:40.328Z,4.95
2023-01-12T13:29:42.105Z,3.88
2023-01-12T13:32:42.218Z,3.75
2023-01-12T13:35:29.947Z,4.15
2023-01-12T13:38:09.419Z,2.83
2023-01-12T13:40:39.124Z,4.85
2023-01-12T13:43:17.055Z,4.88
2023-01-12T13:45:50.843Z,5.40
2023-01-12T13:48:20.085Z,4.32
2023-01-12T13:50:51.519Z,2.08
2023-01-12T13:53:28.477Z,4.03
2023-01-12T13:55:59.043Z,3.47
2023-01-12T13:58:28.220Z,4.68
2023-01-12T14:00:59.373Z,3.65
2023-01-12T14:03:48.529Z,8.70
2023-01-12T14:06:27.053Z,9.25
2023-01-12T14:09:08.726Z,9.77
2023-01-12T14:12:04.595Z,6.22
2023-01-12T14:15:15.670Z,7.45
2023-01-12T14:17:50.118Z,5.47
2023-01-12T14:20:20.163Z,6.07
2023-01-12T14:22:48.668Z,8.05
2023-01-12T14:25:21.004Z,9.00
2023-01-12T14:27:53.652Z,8.82
2023-01-12T14:30:23.337Z,8.23
2023-01-12T14:32:53.163Z,8.55
2023-01-12T14:35:23.964Z,7.72
2023-01-12T14:37:55.309Z,4.80
2023-01-12T14:40:29.517Z,8.43
2023-01-12T14:43:30.427Z,6.43
2023-01-12T14:46:18.122Z,6.38
2023-01-12T14:48:59.900Z,4.03
2023-01-12T14:51:32.533Z,4.07
2023-01-12T14:54:03.755Z,5.05
2023-01-12T14:56:42.921Z,5.10
2023-01-12T14:59:15.994Z,5.95
2023-01-12T15:01:44.645Z,7.78
2023-01-12T15:04:19.301Z,1.77
2023-01-12T15:06:47.854Z,1.67
2023-01-12T15:09:29.246Z,1.85
2023-01-12T15:11:59.091Z,3.22
2023-01-12T15:14:30.112Z,3.83
2023-01-12T15:17:15.816Z,4.53
2023-01-12T15:20:01.845Z,3.33
2023-01-12T15:22:48.700Z,3.72
2023-01-12T15:25:37.489Z,6.47
2023-01-12T15:28:08.551Z,6.45
2023-01-12T15:30:39.214Z,2.72
2023-01-12T15:33:07.897Z,4.45
2023-01-12T15:35:36.933Z,4.00
2023-01-12T15:38:05.402Z,3.03
2023-01-12T15:40:35.604Z,2.05
2023-01-12T15:43:04.815Z,3.42
2023-01-12T15:45:37.686Z,4.57
2023-01-12T15:48:07.271Z,3.55
2023-01-12T15:50:39.066Z,4.03
2023-01-12T15:53:11.887Z,4.72
2023-01-12T15:55:41.420Z,6.07
2023-01-12T15:58:09.921Z,6.53
2023-01-12T16:00:40.285Z,4.53
2023-01-12T16:03:28.912Z,4.68
2023-01-12T16:06:01.408Z,8.02
2023-01-12T16:08:29.614Z,5.75
2023-01-12T16:11:14.587Z,6.80
2023-01-12T16:13:42.881Z,8.07
2023-01-12T16:16:16.639Z,4.65
2023-01-12T16:18:45.281Z,4.70
2023-01-12T16:21:17.342Z,6.88
2023-01-12T16:23:45.710Z,4.35
2023-01-12T16:26:14.135Z,12.02
2023-01-12T16:28:42.711Z,10.02
2023-01-12T16:31:15.213Z,7.18
2023-01-12T16:33:44.891Z,6.35
2023-01-12T16:36:14.492Z,5.95
2023-01-12T16:38:43.588Z,5.85
2023-01-12T16:41:14.037Z,4.57
2023-01-12T16:43:42.469Z,5.43
2023-01-12T16:46:14.195Z,6.73
2023-01-12T16:48:42.860Z,6.67
2023-01-12T16:51:12.735Z,7.07
2023-01-12T16:53:42.253Z,9.40
2023-01-12T16:56:12.183Z,6.07
2023-01-12T16:58:41.956Z,5.57
2023-01-12T17:01:13.550Z,6.77
2023-01-12T17:03:42.649Z,6.07
2023-01-12T17:06:12.388Z,9.50
2023-01-12T17:08:40.955Z,9.43
2023-01-12T17:11:10.331Z,9.10
2023-01-12T17:13:39.402Z,8.73
2023-01-12T17:16:09.234Z,8.27
2023-01-12T17:18:39.729Z,9.37
2023-01-12T17:21:10.504Z,8.93
2023-01-12T17:23:41.002Z,9.83
2023-01-12T17:26:13.129Z,11.20
2023-01-12T17:28:42.057Z,10.27
2023-01-12T17:31:12.093Z,10.70
2023-01-12T17:33:42.230Z,9.77
2023-01-12T17:36:12.270Z,9.37
2023-01-12T17:38:41.197Z,11.50
2023-01-12T17:41:30.240Z,11.87
2023-01-12T17:43:57.831Z,13.27
2023-01-12T17:46:26.265Z,11.70
2023-01-12T17:48:58.755Z,13.17
2023-01-12T17:51:27.286Z,15.50
2023-01-12T17:53:55.887Z,8.83
2023-01-12T17:56:24.380Z,9.77
2023-01-12T17:58:53.232Z,13.57
2023-01-12T18:01:23.152Z,11.50
2023-01-12T18:03:51.634Z,9.55
2023-01-12T18:06:28.381Z,7.13
2023-01-12T18:08:59.519Z,12.40
2023-01-12T18:11:29.084Z,8.57
2023-01-12T18:13:58.049Z,14.80
2023-01-12T18:16:26.691Z,11.45
2023-01-12T18:18:55.237Z,7.18
2023-01-12T18:21:27.576Z,6.90
2023-01-12T18:23:57.679Z,10.45
2023-01-12T18:26:28.100Z,6.57
2023-01-12T18:28:57.558Z,11.20
2023-01-12T18:31:28.791Z,9.10
2023-01-12T18:34:00.249Z,9.77
2023-01-12T18:36:30.115Z,8.27
2023-01-12T18:38:58.752Z,6.10
2023-01-12T18:41:44.746Z,6.85
2023-01-12T18:44:13.141Z,5.38
2023-01-12T18:47:00.650Z,6.25
2023-01-12T18:49:30.620Z,6.57
2023-01-12T18:52:18.667Z,6.70
2023-01-12T18:54:48.407Z,12.02
2023-01-12T18:57:18.350Z,8.52
2023-01-12T18:59:47.701Z,6.88
2023-01-12T19:02:17.036Z,5.15
2023-01-12T19:05:12.969Z,8.02
2023-01-12T19:08:02.182Z,4.78
2023-01-12T19:10:32.250Z,7.65
2023-01-12T19:13:18.279Z,8.40
2023-01-12T19:16:04.510Z,5.90
2023-01-12T19:18:35.085Z,4.80
2023-01-12T19:21:22.013Z,8.32
2023-01-12T19:24:08.967Z,11.18
2023-01-12T19:27:06.677Z,12.77
2023-01-12T19:29:35.485Z,7.63
2023-01-12T19:32:04.153Z,10.88
2023-01-12T19:34:32.650Z,7.70
2023-01-12T19:37:01.198Z,9.82
2023-01-12T19:39:49.432Z,4.07
2023-01-12T19:42:38.371Z,6.13
2023-01-12T19:45:09.652Z,7.63
2023-01-12T19:47:38.637Z,8.77
2023-01-12T19:50:08.666Z,7.35
2023-01-12T19:52:37.746Z,10.18
2023-01-12T19:55:10.273Z,9.05
2023-01-12T19:57:39.395Z,9.73
2023-01-12T20:00:09.696Z,7.55
2023-01-12T20:02:38.140Z,11.60
2023-01-12T20:05:07.276Z,11.93
2023-01-12T20:07:35.825Z,18.23
2023-01-12T20:10:04.307Z,11.45
2023-01-12T20:12:34.017Z,13.45
2023-01-12T20:15:03.609Z,12.45
2023-01-12T20:17:31.984Z,12.63
2023-01-12T20:20:00.584Z,16.05
2023-01-12T20:22:29.032Z,21.67
2023-01-12T20:25:01.133Z,18.77
2023-01-12T20:27:30.203Z,17.08
2023-01-12T20:30:00.350Z,15.27
2023-01-12T20:32:31.580Z,24.38
2023-01-12T20:35:00.512Z,18.52
2023-01-12T20:37:28.897Z,20.63
2023-01-12T20:39:58.207Z,19.70
2023-01-12T20:42:26.672Z,21.85
2023-01-12T20:44:55.113Z,16.90
2023-01-12T20:47:26.070Z,25.05
2023-01-12T20:49:54.551Z,21.05
2023-01-12T20:52:23.359Z,26.83
2023-01-12T20:54:52.155Z,23.17
2023-01-12T20:57:21.029Z,27.13
2023-01-12T20:59:49.629Z,29.17
2023-01-12T21:02:19.666Z,31.83
2023-01-12T21:04:49.397Z,30.07
2023-01-12T21:07:20.977Z,35.67
2023-01-12T21:09:50.219Z,34.40
2023-01-12T21:12:19.591Z,32.33
2023-01-12T21:14:47.987Z,34.53
2023-01-12T21:17:18.295Z,38.00
2023-01-12T21:19:48.149Z,34.90
2023-01-12T21:22:16.504Z,27.00
2023-01-12T21:24:44.968Z,34.80
2023-01-12T21:27:13.332Z,32.77
2023-01-12T21:29:41.794Z,31.13
2023-01-12T21:32:10.297Z,39.10
2023-01-12T21:34:38.582Z,26.83
2023-01-12T21:37:08.764Z,30.53
2023-01-12T21:39:37.162Z,35.33
2023-01-12T21:42:22.966Z,34.57
2023-01-12T21:44:51.304Z,39.03
2023-01-12T21:47:19.894Z,36.63
2023-01-12T21:49:48.308Z,30.20
2023-01-12T21:52:19.043Z,38.00
2023-01-12T21:54:47.589Z,36.47
2023-01-12T21:57:15.957Z,48.03
2023-01-12T21:59:44.415Z,53.67
2023-01-12T22:02:12.963Z,44.77
2023-01-12T22:04:41.260Z,39.77
2023-01-12T22:07:09.822Z,40.60
2023-01-12T22:09:39.714Z,59.47
2023-01-12T22:12:08.421Z,49.73
2023-01-12T22:14:36.984Z,54.27
2023-01-12T22:17:05.413Z,47.67
2023-01-12T22:19:33.956Z,37.23
2023-01-12T22:22:02.566Z,38.83
2023-01-12T22:24:30.953Z,40.23
2023-01-12T22:27:02.070Z,38.17
2023-01-12T22:29:30.493Z,33.40
2023-01-12T22:31:59.277Z,36.70
2023-01-12T22:34:27.891Z,39.17
2023-01-12T22:36:56.284Z,43.43
2023-01-12T22:39:24.700Z,43.43
2023-01-12T22:41:53.128Z,50.03
2023-01-12T22:44:25.570Z,43.87
2023-01-12T22:46:54.155Z,44.60
2023-01-12T22:49:22.833Z,52.63
2023-01-12T22:51:51.253Z,40.73
2023-01-12T22:54:20.228Z,44.77
2023-01-12T22:56:48.582Z,33.70
2023-01-12T22:59:17.124Z,35.90
2023-01-12T23:01:46.695Z,40.80
2023-01-12T23:04:15.159Z,35.47
2023-01-12T23:06:43.412Z,48.23
2023-01-12T23:09:12.052Z,40.30
2023-01-12T23:11:40.686Z,38.87
2023-01-12T23:14:09.324Z,30.57
2023-01-12T23:16:37.775Z,46.00
2023-01-12T23:19:07.393Z,47.17
2023-01-12T23:21:36.373Z,35.37
2023-01-12T23:24:05.567Z,38.53
2023-01-12T23:26:34.310Z,47.40
2023-01-12T23:29:03.645Z,41.20
2023-01-12T23:31:33.383Z,40.93
2023-01-12T23:34:02.089Z,46.80
2023-01-12T23:36:32.449Z,42.40
2023-01-12T23:39:02.205Z,38.93
2023-01-12T23:41:32.007Z,44.10
2023-01-12T23:44:01.572Z,42.83
2023-01-12T23:46:31.785Z,34.20
2023-01-12T23:49:00.414Z,52.03
2023-01-12T23:51:31.498Z,48.10
2023-01-12T23:54:01.603Z,43.10
2023-01-12T23:56:31.870Z,45.20
2023-01-12T23:59:00.880Z,38.63
